createdAt,value
2023-04-04T00:00:42.118Z,0.90
2023-04-04T00:03:18.541Z,0.90
2023-04-04T00:05:54.176Z,0.90
2023-04-04T00:08:29.826Z,0.90
2023-04-04T00:11:09.117Z,0.90
2023-04-04T00:13:43.927Z,0.90
2023-04-04T00:16:19.831Z,0.90
2023-04-04T00:18:56.542Z,0.90
2023-04-04T00:21:36.315Z,0.90
2023-04-04T00:24:13.239Z,0.90
2023-04-04T00:26:51.697Z,0.80
2023-04-04T00:29:28.016Z,0.80
2023-04-04T00:32:08.943Z,0.80
2023-04-04T00:34:47.318Z,0.80
2023-04-04T00:37:22.629Z,0.70
2023-04-04T00:40:00.273Z,0.70
2023-04-04T00:42:40.827Z,0.70
2023-04-04T00:45:16.413Z,0.60
2023-04-04T00:47:51.878Z,0.60
2023-04-04T00:50:28.453Z,0.60
2023-04-04T00:53:03.655Z,0.60
2023-04-04T00:55:40.067Z,0.60
2023-04-04T00:58:19.565Z,0.60
2023-04-04T01:00:55.104Z,0.50
2023-04-04T01:03:31.317Z,0.50
2023-04-04T01:06:08.220Z,0.60
2023-04-04T01:08:43.929Z,0.60
2023-04-04T01:11:20.207Z,0.60
2023-04-04T01:14:00.704Z,0.60
2023-04-04T01:16:36.568Z,0.60
2023-04-04T01:19:15.298Z,0.60
2023-04-04T01:21:51.314Z,0.60
2023-04-04T01:24:26.211Z,0.60
2023-04-04T01:27:07.716Z,0.50
2023-04-04T01:29:55.776Z,0.60
2023-04-04T01:32:33.690Z,0.50
2023-04-04T01:35:21.339Z,0.50
2023-04-04T01:38:13.210Z,0.50
2023-04-04T01:40:49.245Z,0.50
2023-04-04T01:43:29.615Z,0.50
2023-04-04T01:46:06.966Z,0.50
2023-04-04T01:48:43.001Z,0.50
2023-04-04T01:51:19.788Z,0.40
2023-04-04T01:53:55.533Z,0.40
2023-04-04T01:56:31.702Z,0.30
2023-04-04T01:59:14.880Z,0.40
2023-04-04T02:01:50.775Z,0.30
2023-04-04T02:04:27.427Z,0.30
2023-04-04T02:07:03.847Z,0.30
2023-04-04T02:09:40.760Z,0.30
2023-04-04T02:12:17.268Z,0.30
2023-04-04T02:14:55.173Z,0.30
2023-04-04T02:17:30.402Z,0.30
2023-04-04T02:20:06.280Z,0.30
2023-04-04T02:22:40.055Z,0.30
2023-04-04T02:25:16.050Z,0.20
2023-04-04T02:27:51.791Z,0.20
2023-04-04T02:30:30.635Z,0.30
2023-04-04T02:33:10.373Z,0.30
2023-04-04T02:35:47.075Z,0.30
2023-04-04T02:38:23.117Z,0.30
2023-04-04T02:41:00.279Z,0.30
2023-04-04T02:43:34.955Z,0.20
2023-04-04T02:46:21.680Z,0.20
2023-04-04T02:49:02.585Z,0.20
2023-04-04T02:51:40.014Z,0.20
2023-04-04T02:54:17.799Z,0.20
2023-04-04T02:56:55.627Z,0.20
2023-04-04T02:59:31.008Z,0.20
2023-04-04T03:02:09.621Z,0.20
2023-04-04T03:04:47.303Z,0.20
2023-04-04T03:07:25.494Z,0.10
2023-04-04T03:10:02.598Z,0.10
2023-04-04T03:12:37.862Z,0.00
2023-04-04T03:15:18.918Z,-0.10
2023-04-04T03:17:59.348Z,-0.10
2023-04-04T03:20:36.750Z,-0.10
2023-04-04T03:23:12.575Z,-0.10
2023-04-04T03:25:47.886Z,-0.10
2023-04-04T03:28:24.189Z,-0.20
2023-04-04T03:31:03.422Z,-0.10
2023-04-04T03:33:43.350Z,-0.20
2023-04-04T03:36:18.552Z,-0.20
2023-04-04T03:38:57.394Z,-0.20
2023-04-04T03:41:32.803Z,-0.20
2023-04-04T03:44:10.392Z,-0.20
2023-04-04T03:46:46.956Z,-0.30
2023-04-04T03:49:26.274Z,-0.20
2023-04-04T03:52:03.244Z,-0.30
2023-04-04T03:54:41.633Z,-0.30
2023-04-04T03:57:16.913Z,-0.30
2023-04-04T03:59:53.132Z,-0.30
2023-04-04T04:02:31.400Z,-0.30
2023-04-04T04:05:10.964Z,-0.30
2023-04-04T04:07:48.589Z,-0.30
2023-04-04T04:10:29.333Z,-0.30
2023-04-04T04:13:04.830Z,-0.30
2023-04-04T04:15:45.715Z,-0.30
2023-04-04T04:18:27.523Z,-0.20
2023-04-04T04:21:12.402Z,-0.30
2023-04-04T04:23:52.954Z,-0.30
2023-04-04T04:26:29.864Z,-0.20
2023-04-04T04:29:08.266Z,-0.30
2023-04-04T04:31:47.880Z,-0.30
2023-04-04T04:34:23.727Z,-0.30
2023-04-04T04:37:06.555Z,-0.30
2023-04-04T04:39:51.647Z,-0.20
2023-04-04T04:42:47.564Z,-0.30
2023-04-04T04:45:29.954Z,-0.20
2023-04-04T04:48:14.044Z,-0.30
2023-04-04T04:50:55.216Z,-0.30
2023-04-04T04:53:46.621Z,-0.20
2023-04-04T04:56:22.149Z,-0.20
2023-04-04T04:59:01.477Z,-0.30
2023-04-04T05:01:36.367Z,-0.20
2023-04-04T05:04:11.994Z,-0.20
2023-04-04T05:06:56.578Z,-0.20
2023-04-04T05:09:37.184Z,-0.20
2023-04-04T05:12:11.815Z,-0.20
2023-04-04T05:14:51.675Z,-0.20
2023-04-04T05:17:29.556Z,-0.20
2023-04-04T05:20:15.218Z,-0.20
2023-04-04T05:22:53.301Z,-0.20
2023-04-04T05:25:43.879Z,-0.20
2023-04-04T05:28:21.168Z,-0.20
2023-04-04T05:30:59.992Z,-0.10
2023-04-04T05:33:40.588Z,-0.10
2023-04-04T05:36:29.803Z,-0.10
2023-04-04T05:39:12.363Z,-0.10
2023-04-04T05:42:04.337Z,0.00
2023-04-04T05:44:43.747Z,0.00
2023-04-04T05:47:22.396Z,0.00
2023-04-04T05:49:59.352Z,0.10
2023-04-04T05:52:37.790Z,0.10
2023-04-04T05:55:14.738Z,0.10
2023-04-04T05:57:59.054Z,0.10
2023-04-04T06:00:50.529Z,0.20
2023-04-04T06:03:26.973Z,0.30
2023-04-04T06:06:04.746Z,0.30
2023-04-04T06:08:53.117Z,0.40
2023-04-04T06:11:29.078Z,0.40
2023-04-04T06:14:25.948Z,0.50
2023-04-04T06:17:02.339Z,0.50
2023-04-04T06:19:39.860Z,0.60
2023-04-04T06:22:16.527Z,0.70
2023-04-04T06:24:56.347Z,0.70
2023-04-04T06:27:35.821Z,0.70
2023-04-04T06:30:19.805Z,0.80
2023-04-04T06:32:54.232Z,0.80
2023-04-04T06:35:35.275Z,0.80
2023-04-04T06:38:12.373Z,0.80
2023-04-04T06:40:47.500Z,0.90
2023-04-04T06:43:23.787Z,0.90
2023-04-04T06:46:02.966Z,1.00
2023-04-04T06:48:39.415Z,1.00
2023-04-04T06:51:18.668Z,1.10
2023-04-04T06:53:56.176Z,1.10
2023-04-04T06:56:35.432Z,1.20
2023-04-04T06:59:14.702Z,1.20
2023-04-04T07:01:53.747Z,1.20
2023-04-04T07:04:33.663Z,1.20
2023-04-04T07:07:12.036Z,1.30
2023-04-04T07:09:49.335Z,1.40
2023-04-04T07:12:25.968Z,1.50
2023-04-04T07:15:02.801Z,1.50
2023-04-04T07:17:45.468Z,1.60
2023-04-04T07:20:23.645Z,1.60
2023-04-04T07:22:58.435Z,1.60
2023-04-04T07:25:34.292Z,1.70
2023-04-04T07:28:13.612Z,1.60
2023-04-04T07:30:50.177Z,1.70
2023-04-04T07:33:28.238Z,1.70
2023-04-04T07:36:06.232Z,1.70
2023-04-04T07:38:44.160Z,1.80
2023-04-04T07:41:22.357Z,1.70
2023-04-04T07:43:57.714Z,1.80
2023-04-04T07:46:34.718Z,1.80
2023-04-04T07:49:14.698Z,1.90
2023-04-04T07:51:51.322Z,1.90
2023-04-04T07:54:27.636Z,2.00
2023-04-04T07:57:05.781Z,2.10
2023-04-04T07:59:43.202Z,2.00
2023-04-04T08:02:18.277Z,2.00
2023-04-04T08:04:57.301Z,2.00
2023-04-04T08:07:34.512Z,1.90
2023-04-04T08:10:11.763Z,1.90
2023-04-04T08:12:48.429Z,1.90
2023-04-04T08:15:23.510Z,1.80
2023-04-04T08:17:59.417Z,1.80
2023-04-04T08:20:39.617Z,1.80
2023-04-04T08:23:15.655Z,1.70
2023-04-04T08:25:52.770Z,1.80
2023-04-04T08:28:28.656Z,1.80
2023-04-04T08:31:03.914Z,1.80
2023-04-04T08:33:47.191Z,1.90
2023-04-04T08:36:28.007Z,2.00
2023-04-04T08:39:04.419Z,2.00
2023-04-04T08:41:39.752Z,2.00
2023-04-04T08:44:15.507Z,2.10
2023-04-04T08:46:50.463Z,2.10
2023-04-04T08:49:28.051Z,2.10
2023-04-04T08:52:07.996Z,2.10
2023-04-04T08:54:47.350Z,2.10
2023-04-04T08:57:20.857Z,2.20
2023-04-04T08:59:56.859Z,2.30
2023-04-04T09:02:33.388Z,2.40
2023-04-04T09:05:11.716Z,2.50
2023-04-04T09:07:49.249Z,2.60
2023-04-04T09:10:24.723Z,2.60
2023-04-04T09:13:12.383Z,2.70
2023-04-04T09:15:50.636Z,2.60
2023-04-04T09:18:26.182Z,2.70
2023-04-04T09:21:02.023Z,2.70
2023-04-04T09:23:43.949Z,2.70
2023-04-04T09:26:24.005Z,2.70
2023-04-04T09:29:00.291Z,2.80
2023-04-04T09:31:35.432Z,2.80
2023-04-04T09:34:11.742Z,2.90
2023-04-04T09:36:46.624Z,2.90
2023-04-04T09:39:26.291Z,3.00
2023-04-04T09:42:02.369Z,3.10
2023-04-04T09:44:37.488Z,3.20
2023-04-04T09:47:31.708Z,3.20
2023-04-04T09:50:10.279Z,3.30
2023-04-04T09:52:47.053Z,3.30
2023-04-04T09:55:27.015Z,3.40
2023-04-04T09:58:03.208Z,3.40
2023-04-04T10:00:40.726Z,3.40
2023-04-04T10:03:18.491Z,3.50
2023-04-04T10:05:59.473Z,3.60
2023-04-04T10:08:35.136Z,3.60
2023-04-04T10:11:17.216Z,3.70
2023-04-04T10:13:53.171Z,3.70
2023-04-04T10:16:30.248Z,3.70
2023-04-04T10:19:06.289Z,3.80
2023-04-04T10:21:40.839Z,3.80
2023-04-04T10:24:19.478Z,3.90
2023-04-04T10:26:59.396Z,3.90
2023-04-04T10:29:34.474Z,4.00
2023-04-04T10:32:10.856Z,4.00
2023-04-04T10:34:48.703Z,4.00
2023-04-04T10:37:27.732Z,4.10
2023-04-04T10:40:06.281Z,4.10
2023-04-04T10:42:47.867Z,4.00
2023-04-04T10:45:26.874Z,4.00
2023-04-04T10:48:08.110Z,4.00
2023-04-04T10:50:44.645Z,4.00
2023-04-04T10:53:21.926Z,3.90
2023-04-04T10:56:00.689Z,4.00
2023-04-04T10:58:46.443Z,4.00
2023-04-04T11:01:24.626Z,4.30
2023-04-04T11:04:22.223Z,4.20
2023-04-04T11:07:15.353Z,4.30
2023-04-04T11:09:54.852Z,4.30
2023-04-04T11:12:34.759Z,4.30
2023-04-04T11:15:18.080Z,4.20
2023-04-04T11:18:10.303Z,4.10
2023-04-04T11:20:52.403Z,4.00
2023-04-04T11:23:28.725Z,4.00
2023-04-04T11:26:03.914Z,3.90
2023-04-04T11:28:49.932Z,3.90
2023-04-04T11:31:32.972Z,3.90
2023-04-04T11:34:11.556Z,3.90
2023-04-04T11:36:56.674Z,4.10
2023-04-04T11:39:34.673Z,4.30
2023-04-04T11:42:11.104Z,4.30
2023-04-04T11:44:45.306Z,4.30
2023-04-04T11:47:28.193Z,4.10
2023-04-04T11:50:05.895Z,4.10
2023-04-04T11:52:41.813Z,4.10
2023-04-04T11:55:22.567Z,4.20
2023-04-04T11:58:00.385Z,4.30
2023-04-04T12:00:36.438Z,4.40
2023-04-04T12:03:14.383Z,4.50
2023-04-04T12:05:50.350Z,4.40
2023-04-04T12:08:25.438Z,4.40
2023-04-04T12:11:01.470Z,4.40
2023-04-04T12:13:35.675Z,4.40
2023-04-04T12:16:10.517Z,4.40
2023-04-04T12:18:48.613Z,4.40
2023-04-04T12:21:24.087Z,4.40
2023-04-04T12:23:59.989Z,4.50
2023-04-04T12:26:35.569Z,4.40
2023-04-04T12:29:11.071Z,4.40
2023-04-04T12:31:47.916Z,4.30
2023-04-04T12:34:27.462Z,4.20
2023-04-04T12:37:03.041Z,4.10
2023-04-04T12:39:46.445Z,4.00
2023-04-04T12:42:22.162Z,3.90
2023-04-04T12:45:00.020Z,3.90
2023-04-04T12:47:36.079Z,3.90
2023-04-04T12:50:16.882Z,3.90
2023-04-04T12:53:04.225Z,3.90
2023-04-04T12:55:41.520Z,3.90
2023-04-04T12:58:18.938Z,4.00
2023-04-04T13:00:55.777Z,4.10
2023-04-04T13:03:29.164Z,4.10
2023-04-04T13:06:09.969Z,4.00
2023-04-04T13:08:54.323Z,4.00
2023-04-04T13:11:30.480Z,4.00
2023-04-04T13:14:05.291Z,4.00
2023-04-04T13:16:41.249Z,3.90
2023-04-04T13:19:15.594Z,3.90
2023-04-04T13:21:54.957Z,3.90
2023-04-04T13:24:31.802Z,3.90
2023-04-04T13:27:08.648Z,3.90
2023-04-04T13:29:44.697Z,4.00
2023-04-04T13:32:21.450Z,4.00
2023-04-04T13:35:00.543Z,4.00
2023-04-04T13:37:41.230Z,4.00
2023-04-04T13:40:17.516Z,4.00
2023-04-04T13:42:53.879Z,4.00
2023-04-04T13:45:31.219Z,4.00
2023-04-04T13:48:06.675Z,4.00
2023-04-04T13:50:42.228Z,4.00
2023-04-04T13:53:24.973Z,4.00
2023-04-04T13:56:17.559Z,4.10
2023-04-04T13:58:54.483Z,4.10
2023-04-04T14:01:34.217Z,4.10
2023-04-04T14:04:22.902Z,4.20
2023-04-04T14:07:00.418Z,4.30
2023-04-04T14:09:38.912Z,4.40
2023-04-04T14:12:16.958Z,4.60
2023-04-04T14:14:53.554Z,4.70
2023-04-04T14:17:30.380Z,4.70
2023-04-04T14:20:06.712Z,4.70
2023-04-04T14:22:43.682Z,4.60
2023-04-04T14:25:22.907Z,4.50
2023-04-04T14:28:00.364Z,4.40
2023-04-04T14:30:36.384Z,4.40
2023-04-04T14:33:12.438Z,4.30
2023-04-04T14:35:48.995Z,4.30
2023-04-04T14:38:25.488Z,4.20
2023-04-04T14:41:08.535Z,4.30
2023-04-04T14:43:45.277Z,4.20
2023-04-04T14:46:22.849Z,4.20
2023-04-04T14:49:00.602Z,4.10
2023-04-04T14:51:37.270Z,4.10
2023-04-04T14:54:15.671Z,4.20
2023-04-04T14:56:56.849Z,4.10
2023-04-04T14:59:34.886Z,4.20
2023-04-04T15:02:12.136Z,4.30
2023-04-04T15:04:50.093Z,4.30
2023-04-04T15:07:26.171Z,4.30
2023-04-04T15:10:00.658Z,4.30
2023-04-04T15:12:41.531Z,4.30
2023-04-04T15:15:17.158Z,4.30
2023-04-04T15:17:55.102Z,4.40
2023-04-04T15:20:34.114Z,4.50
2023-04-04T15:23:11.712Z,4.50
2023-04-04T15:25:49.288Z,4.50
2023-04-04T15:28:31.695Z,4.50
2023-04-04T15:31:07.343Z,4.50
2023-04-04T15:33:43.067Z,4.60
2023-04-04T15:36:19.433Z,4.60
2023-04-04T15:38:56.046Z,4.60
2023-04-04T15:41:34.602Z,4.60
2023-04-04T15:44:18.079Z,4.60
2023-04-04T15:46:55.954Z,4.60
2023-04-04T15:49:35.183Z,4.50
2023-04-04T15:52:11.180Z,4.50
2023-04-04T15:54:46.241Z,4.50
2023-04-04T15:57:24.465Z,4.40
2023-04-04T16:00:04.554Z,4.50
2023-04-04T16:02:43.711Z,4.40
2023-04-04T16:05:22.592Z,4.40
2023-04-04T16:08:01.935Z,4.50
2023-04-04T16:10:39.654Z,4.50
2023-04-04T16:13:24.130Z,4.50
2023-04-04T16:16:05.028Z,4.50
2023-04-04T16:18:44.416Z,4.50
2023-04-04T16:21:23.880Z,4.40
2023-04-04T16:24:00.028Z,4.40
2023-04-04T16:26:35.495Z,4.30
2023-04-04T16:29:11.146Z,4.30
2023-04-04T16:31:50.154Z,4.40
2023-04-04T16:34:27.350Z,4.40
2023-04-04T16:37:02.174Z,4.40
2023-04-04T16:39:40.057Z,4.40
2023-04-04T16:42:19.679Z,4.30
2023-04-04T16:44:54.020Z,4.20
2023-04-04T16:47:32.667Z,4.20
2023-04-04T16:50:09.057Z,4.10
2023-04-04T16:52:45.691Z,4.10
2023-04-04T16:55:23.380Z,4.00
2023-04-04T16:58:02.565Z,3.90
2023-04-04T17:00:37.365Z,4.00
2023-04-04T17:03:15.745Z,3.90
2023-04-04T17:05:56.526Z,3.80
2023-04-04T17:08:32.548Z,3.80
2023-04-04T17:11:08.674Z,3.70
2023-04-04T17:13:41.854Z,3.70
2023-04-04T17:16:18.227Z,3.70
2023-04-04T17:18:59.626Z,3.70
2023-04-04T17:21:35.899Z,3.70
2023-04-04T17:24:12.850Z,3.70
2023-04-04T17:26:49.717Z,3.70
2023-04-04T17:29:27.360Z,3.70
2023-04-04T17:32:02.401Z,3.60
2023-04-04T17:34:43.193Z,3.60
2023-04-04T17:37:23.518Z,3.60
2023-04-04T17:40:00.360Z,3.50
2023-04-04T17:42:38.232Z,3.50
2023-04-04T17:45:14.858Z,3.50
2023-04-04T17:47:51.912Z,3.40
2023-04-04T17:50:48.351Z,3.40
2023-04-04T17:53:25.384Z,3.40
2023-04-04T17:56:03.691Z,3.30
2023-04-04T17:58:42.132Z,3.20
2023-04-04T18:01:18.234Z,3.10
2023-04-04T18:03:58.881Z,3.10
2023-04-04T18:06:46.180Z,3.00
2023-04-04T18:09:31.709Z,3.00
2023-04-04T18:12:07.815Z,2.90
2023-04-04T18:14:46.978Z,2.90
2023-04-04T18:17:26.191Z,2.90
2023-04-04T18:20:05.328Z,2.80
2023-04-04T18:22:46.514Z,2.80
2023-04-04T18:25:28.454Z,2.70
2023-04-04T18:28:07.944Z,2.60
2023-04-04T18:30:49.798Z,2.60
2023-04-04T18:33:26.936Z,2.50
2023-04-04T18:36:04.673Z,2.50
2023-04-04T18:38:44.042Z,2.50
2023-04-04T18:41:19.799Z,2.50
2023-04-04T18:43:56.329Z,2.40
2023-04-04T18:46:38.990Z,2.40
2023-04-04T18:49:15.068Z,2.30
2023-04-04T18:51:50.763Z,2.30
2023-04-04T18:54:31.532Z,2.30
2023-04-04T18:57:12.198Z,2.20
2023-04-04T18:59:52.932Z,2.20
2023-04-04T19:02:29.299Z,2.20
2023-04-04T19:05:07.950Z,2.20
2023-04-04T19:07:46.283Z,2.10
2023-04-04T19:10:27.453Z,2.10
2023-04-04T19:13:04.897Z,2.00
2023-04-04T19:15:41.766Z,2.00
2023-04-04T19:18:18.704Z,1.90
2023-04-04T19:20:59.891Z,1.80
2023-04-04T19:23:40.517Z,1.80
2023-04-04T19:26:22.712Z,1.80
2023-04-04T19:29:00.002Z,1.80
2023-04-04T19:31:41.378Z,1.70
2023-04-04T19:34:18.194Z,1.70
2023-04-04T19:36:53.986Z,1.70
2023-04-04T19:39:33.982Z,1.60
2023-04-04T19:42:14.438Z,1.60
2023-04-04T19:44:51.661Z,1.60
2023-04-04T19:47:27.854Z,1.60
2023-04-04T19:50:04.295Z,1.60
2023-04-04T19:52:49.763Z,1.60
2023-04-04T19:55:36.176Z,1.60
2023-04-04T19:58:21.706Z,1.60
2023-04-04T20:00:59.412Z,1.60
2023-04-04T20:03:37.627Z,1.60
2023-04-04T20:06:16.306Z,1.60
2023-04-04T20:08:55.802Z,1.60
2023-04-04T20:11:34.359Z,1.60
2023-04-04T20:14:15.488Z,1.60
2023-04-04T20:16:54.669Z,1.60
2023-04-04T20:19:31.736Z,1.60
2023-04-04T20:22:09.113Z,1.60
2023-04-04T20:24:44.664Z,1.60
2023-04-04T20:27:27.376Z,1.60
2023-04-04T20:30:14.264Z,1.60
2023-04-04T20:32:50.295Z,1.60
2023-04-04T20:35:31.791Z,1.60
2023-04-04T20:38:07.077Z,1.60
2023-04-04T20:40:43.588Z,1.60
2023-04-04T20:43:20.529Z,1.60
2023-04-04T20:45:59.221Z,1.60
2023-04-04T20:48:43.893Z,1.60
2023-04-04T20:51:28.109Z,1.60
2023-04-04T20:54:04.393Z,1.60
2023-04-04T20:56:56.822Z,1.60
2023-04-04T20:59:40.992Z,1.60
2023-04-04T21:02:35.843Z,1.60
2023-04-04T21:05:13.031Z,1.60
2023-04-04T21:07:49.523Z,1.60
2023-04-04T21:10:28.566Z,1.60
2023-04-04T21:13:06.773Z,1.50
2023-04-04T21:15:49.156Z,1.50
2023-04-04T21:18:22.982Z,1.50
2023-04-04T21:21:22.773Z,1.40
2023-04-04T21:23:58.028Z,1.30
2023-04-04T21:26:44.075Z,1.40
2023-04-04T21:29:25.125Z,1.30
2023-04-04T21:32:04.278Z,1.30
2023-04-04T21:34:44.306Z,1.20
2023-04-04T21:37:26.349Z,1.20
2023-04-04T21:40:05.067Z,1.10
2023-04-04T21:42:45.286Z,1.10
2023-04-04T21:45:23.021Z,1.00
2023-04-04T21:47:59.668Z,1.00
2023-04-04T21:50:35.549Z,0.90
2023-04-04T21:53:18.188Z,0.90
2023-04-04T21:55:55.434Z,0.90
2023-04-04T21:58:30.766Z,0.80
2023-04-04T22:01:07.339Z,0.80
2023-04-04T22:03:47.410Z,0.80
2023-04-04T22:06:26.561Z,0.80
2023-04-04T22:09:05.698Z,0.80
2023-04-04T22:11:44.697Z,0.70
2023-04-04T22:14:21.065Z,0.70
2023-04-04T22:16:59.867Z,0.70
2023-04-04T22:19:43.738Z,0.60
2023-04-04T22:22:30.404Z,0.60
2023-04-04T22:25:09.432Z,0.60
2023-04-04T22:27:44.893Z,0.50
2023-04-04T22:30:23.114Z,0.50
2023-04-04T22:33:00.327Z,0.60
2023-04-04T22:35:35.861Z,0.50
2023-04-04T22:38:15.145Z,0.50
2023-04-04T22:40:59.627Z,0.40
2023-04-04T22:43:34.859Z,0.40
2023-04-04T22:46:10.690Z,0.40
2023-04-04T22:48:47.692Z,0.40
2023-04-04T22:51:24.888Z,0.40
2023-04-04T22:54:01.416Z,0.40
2023-04-04T22:56:36.696Z,0.30
2023-04-04T22:59:15.190Z,0.30
2023-04-04T23:01:51.486Z,0.30
2023-04-04T23:04:31.502Z,0.20
2023-04-04T23:07:10.594Z,0.30
2023-04-04T23:09:50.731Z,0.30
2023-04-04T23:12:27.089Z,0.30
2023-04-04T23:15:06.609Z,0.30
2023-04-04T23:17:47.572Z,0.20
2023-04-04T23:20:25.201Z,0.20
2023-04-04T23:23:07.649Z,0.20
2023-04-04T23:25:40.335Z,0.20
2023-04-04T23:28:16.999Z,0.20
2023-04-04T23:30:58.038Z,0.20
2023-04-04T23:33:34.228Z,0.20
2023-04-04T23:36:12.145Z,0.20
2023-04-04T23:38:48.122Z,0.10
2023-04-04T23:41:24.022Z,0.10
2023-04-04T23:44:03.542Z,0.10
2023-04-04T23:46:45.771Z,0.10
2023-04-04T23:49:23.351Z,0.10
2023-04-04T23:52:01.144Z,0.00
2023-04-04T23:54:43.001Z,0.00
2023-04-04T23:57:17.336Z,-0.10
2023-04-04T23:59:56.249Z,0.00
